Time;durP1;ratioP1;P1;durP2;ratioP2;P2;SDS_P1;SDS_P2;PMS_P1;PMS_P2;Temp;Humidity;BMP_temperature;BMP_pressure;BME280_temperature;BME280_humidity;BME280_pressure;Samples;Min_cycle;Max_cycle;Signal;HPM_P1;HPM_P2
2021/05/02 00:01:53;;;;;;;64.10;35.17;;;;;;;;;;6239493;23;20182;-89
2021/05/02 00:04:58;;;;;;;66.10;35.53;;;;;;;;;;6240225;23;20166;-90
2021/05/02 00:08:03;;;;;;;62.70;34.78;;;;;;;;;;6238908;23;20239;-88
2021/05/02 00:11:10;;;;;;;67.25;35.17;;;;;;;;;;6226920;23;20213;-91
2021/05/02 00:14:15;;;;;;;69.38;37.38;;;;;;;;;;6227331;23;20191;-90
2021/05/02 00:17:20;;;;;;;63.85;35.38;;;;;;;;;;6227137;23;20244;-93
2021/05/02 00:20:25;;;;;;;66.45;36.30;;;;;;;;;;6228796;22;20219;-90
2021/05/02 00:23:29;;;;;;;74.38;37.35;;;;;;;;;;6225947;23;20171;-86
2021/05/02 00:26:35;;;;;;;73.60;38.80;;;;;;;;;;6226660;23;20191;-90
2021/05/02 00:29:41;;;;;;;67.28;35.92;;;;;;;;;;6225381;23;20203;-89
2021/05/02 00:32:47;;;;;;;62.42;34.67;;;;;;;;;;6224714;23;20218;-90
2021/05/02 00:35:52;;;;;;;56.75;31.20;;;;;;;;;;6225298;23;20175;-89
2021/05/02 00:38:57;;;;;;;41.13;25.10;;;;;;;;;;6226093;23;20151;-89
2021/05/02 00:42:05;;;;;;;39.90;22.05;;;;;;;;;;6225047;23;20194;-91
2021/05/02 00:45:10;;;;;;;28.00;16.98;;;;;;;;;;6225667;23;20240;-91
2021/05/02 00:48:16;;;;;;;26.55;15.10;;;;;;;;;;6225757;23;20194;-91
2021/05/02 00:51:23;;;;;;;23.48;14.27;;;;;;;;;;6227287;23;20167;-89
2021/05/02 00:54:33;;;;;;;21.15;12.68;;;;;;;;;;6226761;23;20228;-88
2021/05/02 00:57:45;;;;;;;19.23;12.18;;;;;;;;;;6226486;23;20172;-88
2021/05/02 01:00:52;;;;;;;19.70;12.10;;;;;;;;;;6225252;22;20150;-90
2021/05/02 01:03:59;;;;;;;19.90;12.60;;;;;;;;;;6223819;23;20228;-88
2021/05/02 01:07:05;;;;;;;22.00;12.93;;;;;;;;;;6224220;23;20171;-91
2021/05/02 01:10:11;;;;;;;19.13;11.90;;;;;;;;;;6228475;23;20224;-90
2021/05/02 01:13:19;;;;;;;21.45;12.73;;;;;;;;;;6238963;23;20174;-91
2021/05/02 01:16:27;;;;;;;22.13;13.18;;;;;;;;;;6238128;23;20546;-89
2021/05/02 01:19:32;;;;;;;20.70;13.20;;;;;;;;;;6237521;23;20166;-91
2021/05/02 01:22:39;;;;;;;22.75;13.18;;;;;;;;;;6237712;23;20174;-91
2021/05/02 01:25:44;;;;;;;20.50;13.25;;;;;;;;;;6237311;23;20250;-90
2021/05/02 01:28:53;;;;;;;22.42;12.38;;;;;;;;;;6237406;23;20216;-89
2021/05/02 01:31:57;;;;;;;20.75;12.57;;;;;;;;;;6236460;23;20201;-89
2021/05/02 01:35:03;;;;;;;24.60;14.87;;;;;;;;;;6237689;23;20233;-89
2021/05/02 01:38:07;;;;;;;23.45;13.73;;;;;;;;;;6238169;23;20170;-90
2021/05/02 01:41:13;;;;;;;20.90;13.48;;;;;;;;;;6237504;23;20548;-90
2021/05/02 01:44:18;;;;;;;18.13;11.23;;;;;;;;;;6238797;23;20167;-91
2021/05/02 01:47:23;;;;;;;17.63;11.00;;;;;;;;;;6237183;23;20198;-89
2021/05/02 01:50:28;;;;;;;15.75;10.30;;;;;;;;;;6239585;23;20253;-89
2021/05/02 01:53:33;;;;;;;14.70;8.57;;;;;;;;;;6237977;23;20256;-91
2021/05/02 01:56:38;;;;;;;14.77;9.00;;;;;;;;;;6240266;23;20213;-87
2021/05/02 01:59:43;;;;;;;12.23;7.32;;;;;;;;;;6239157;23;20167;-88
2021/05/02 02:02:48;;;;;;;10.20;5.20;;;;;;;;;;6239138;23;20171;-91
2021/05/02 02:05:52;;;;;;;10.17;6.27;;;;;;;;;;6238051;23;20240;-94
2021/05/02 02:08:58;;;;;;;8.63;4.70;;;;;;;;;;6238238;23;20159;-89
2021/05/02 02:12:04;;;;;;;8.70;4.00;;;;;;;;;;6224877;23;20262;-88
2021/05/02 02:15:09;;;;;;;4.37;2.63;;;;;;;;;;6225027;22;20209;-90
2021/05/02 02:18:15;;;;;;;4.17;2.20;;;;;;;;;;6225598;22;20187;-89
2021/05/02 02:21:21;;;;;;;5.40;2.10;;;;;;;;;;6225319;23;20241;-90
2021/05/02 02:24:34;;;;;;;3.27;2.00;;;;;;;;;;6228290;23;20175;-87
2021/05/02 02:27:40;;;;;;;4.30;2.30;;;;;;;;;;6227507;23;20211;-90
2021/05/02 02:30:45;;;;;;;3.97;2.07;;;;;;;;;;6226324;23;20171;-91
2021/05/02 02:33:51;;;;;;;3.27;1.80;;;;;;;;;;6227843;23;20183;-91
2021/05/02 02:36:55;;;;;;;2.20;1.43;;;;;;;;;;6227368;23;20219;-90
2021/05/02 02:40:00;;;;;;;2.83;1.63;;;;;;;;;;6226872;23;20242;-91
2021/05/02 02:43:06;;;;;;;4.17;1.70;;;;;;;;;;6224967;23;20190;-88
2021/05/02 02:46:16;;;;;;;5.60;1.73;;;;;;;;;;6226010;23;20167;-92
2021/05/02 02:49:22;;;;;;;3.53;2.00;;;;;;;;;;6226228;23;20187;-90
2021/05/02 02:52:29;;;;;;;3.20;2.33;;;;;;;;;;6226693;23;20629;-91
2021/05/02 02:55:39;;;;;;;3.70;1.93;;;;;;;;;;6227059;23;20179;-91
2021/05/02 02:58:47;;;;;;;3.47;2.10;;;;;;;;;;6226130;23;20191;-89
2021/05/02 03:01:53;;;;;;;4.77;2.40;;;;;;;;;;6226540;23;20155;-89
2021/05/02 03:04:59;;;;;;;3.03;2.17;;;;;;;;;;6227366;23;20175;-90
2021/05/02 03:08:04;;;;;;;3.67;2.10;;;;;;;;;;6226325;23;20206;-89
2021/05/02 03:11:09;;;;;;;4.10;2.30;;;;;;;;;;6226466;23;20240;-89
2021/05/02 03:14:14;;;;;;;3.57;2.20;;;;;;;;;;6226736;23;20186;-88
2021/05/02 03:17:22;;;;;;;4.47;2.27;;;;;;;;;;6227024;23;20154;-90
2021/05/02 03:20:28;;;;;;;4.67;2.20;;;;;;;;;;6227266;23;20174;-93
2021/05/02 03:23:34;;;;;;;3.20;2.20;;;;;;;;;;6227376;23;20599;-92
2021/05/02 03:26:39;;;;;;;3.70;2.60;;;;;;;;;;6228060;23;20198;-91
2021/05/02 03:29:47;;;;;;;5.07;2.73;;;;;;;;;;6227292;23;20215;-87
2021/05/02 03:32:54;;;;;;;6.20;3.00;;;;;;;;;;6226208;23;20164;-89
2021/05/02 03:36:00;;;;;;;6.27;3.13;;;;;;;;;;6226034;23;20218;-88
2021/05/02 03:39:05;;;;;;;4.73;3.07;;;;;;;;;;6226730;23;20233;-91
2021/05/02 03:42:09;;;;;;;7.00;3.43;;;;;;;;;;6224992;23;20619;-90
2021/05/02 03:45:15;;;;;;;4.40;2.70;;;;;;;;;;6226367;23;20247;-88
2021/05/02 03:48:21;;;;;;;6.37;3.60;;;;;;;;;;6224568;23;20195;-88
2021/05/02 03:51:27;;;;;;;5.33;2.73;;;;;;;;;;6225026;23;20190;-92
2021/05/02 03:54:31;;;;;;;5.40;3.50;;;;;;;;;;6225913;23;20202;-91
2021/05/02 03:57:36;;;;;;;5.07;3.20;;;;;;;;;;6227282;23;20630;-88
2021/05/02 04:00:44;;;;;;;5.73;3.80;;;;;;;;;;6225436;23;20171;-91
2021/05/02 04:03:49;;;;;;;6.40;3.77;;;;;;;;;;6224784;23;20175;-90
2021/05/02 04:06:58;;;;;;;6.10;3.70;;;;;;;;;;6225664;23;20187;-91
2021/05/02 04:10:03;;;;;;;6.23;3.90;;;;;;;;;;6229169;23;20163;-92
2021/05/02 04:13:07;;;;;;;6.30;4.30;;;;;;;;;;6238502;23;20186;-88
2021/05/02 04:16:15;;;;;;;7.00;4.60;;;;;;;;;;6238159;23;20163;-90
2021/05/02 04:19:19;;;;;;;8.43;3.97;;;;;;;;;;6236703;23;20173;-88
2021/05/02 04:22:29;;;;;;;7.63;4.73;;;;;;;;;;6237685;22;20208;-88
2021/05/02 04:25:34;;;;;;;6.27;4.30;;;;;;;;;;6258240;23;20170;-91
2021/05/02 04:28:39;;;;;;;8.53;4.97;;;;;;;;;;6238716;23;20197;-89
2021/05/02 04:31:45;;;;;;;6.47;4.37;;;;;;;;;;6239968;23;20225;-89
2021/05/02 04:34:49;;;;;;;7.23;5.00;;;;;;;;;;6241862;23;20166;-88
2021/05/02 04:37:54;;;;;;;7.97;4.00;;;;;;;;;;6238343;23;20214;-88
2021/05/02 04:40:59;;;;;;;7.37;4.30;;;;;;;;;;6237861;22;20170;-88
2021/05/02 04:44:04;;;;;;;7.27;3.67;;;;;;;;;;6238386;23;20217;-91
2021/05/02 04:47:10;;;;;;;5.17;3.43;;;;;;;;;;6237313;23;20309;-89
2021/05/02 04:50:14;;;;;;;5.50;3.63;;;;;;;;;;6239750;23;20177;-89
2021/05/02 04:53:19;;;;;;;5.03;3.40;;;;;;;;;;6237525;23;20250;-90
2021/05/02 04:56:24;;;;;;;5.03;3.13;;;;;;;;;;6237586;23;20170;-91
2021/05/02 04:59:28;;;;;;;4.13;2.60;;;;;;;;;;6237307;23;20258;-89
2021/05/02 05:02:34;;;;;;;5.53;3.00;;;;;;;;;;6238067;23;20170;-88
2021/05/02 05:05:39;;;;;;;5.70;2.77;;;;;;;;;;6238802;23;20214;-88
2021/05/02 05:08:44;;;;;;;6.03;2.67;;;;;;;;;;6239932;23;20241;-87
2021/05/02 05:11:48;;;;;;;4.63;3.20;;;;;;;;;;6228709;22;20218;-89
2021/05/02 05:14:53;;;;;;;6.57;3.10;;;;;;;;;;6227656;23;20191;-88
2021/05/02 05:17:59;;;;;;;5.13;3.00;;;;;;;;;;6226139;23;20166;-88
2021/05/02 05:21:03;;;;;;;4.73;3.33;;;;;;;;;;6227594;23;20626;-89
2021/05/02 05:24:08;;;;;;;5.37;3.30;;;;;;;;;;6225946;23;20167;-90
2021/05/02 05:27:13;;;;;;;5.10;3.30;;;;;;;;;;6226315;23;20194;-88
2021/05/02 05:30:18;;;;;;;5.00;3.30;;;;;;;;;;6226510;23;20199;-90
2021/05/02 05:33:23;;;;;;;10.00;3.40;;;;;;;;;;6226719;23;20183;-90
2021/05/02 05:36:28;;;;;;;5.40;3.43;;;;;;;;;;6225353;23;20202;-88
2021/05/02 05:39:32;;;;;;;5.37;3.50;;;;;;;;;;6225637;23;20220;-89
2021/05/02 05:42:37;;;;;;;4.53;3.10;;;;;;;;;;6227527;23;20497;-91
2021/05/02 05:45:41;;;;;;;4.60;3.33;;;;;;;;;;6226856;23;20175;-88
2021/05/02 05:48:47;;;;;;;4.67;2.90;;;;;;;;;;6226651;23;20251;-89
2021/05/02 05:51:52;;;;;;;4.03;2.97;;;;;;;;;;6226577;23;20242;-87
2021/05/02 05:54:57;;;;;;;4.80;3.00;;;;;;;;;;6226380;23;20167;-90
2021/05/02 05:58:02;;;;;;;6.07;2.77;;;;;;;;;;6226940;23;20171;-89
2021/05/02 06:01:06;;;;;;;3.97;2.53;;;;;;;;;;6227361;23;20171;-88
2021/05/02 06:04:12;;;;;;;8.43;2.97;;;;;;;;;;6228153;23;20175;-88
2021/05/02 06:07:17;;;;;;;4.13;3.13;;;;;;;;;;6228807;22;20238;-90
2021/05/02 06:10:21;;;;;;;4.47;2.90;;;;;;;;;;6235583;23;20265;-88
2021/05/02 06:13:26;;;;;;;3.83;2.73;;;;;;;;;;6239959;22;20167;-89
2021/05/02 06:16:31;;;;;;;3.23;2.47;;;;;;;;;;6239923;23;20408;-91
2021/05/02 06:19:36;;;;;;;4.33;2.90;;;;;;;;;;6239884;23;20167;-90
2021/05/02 06:22:41;;;;;;;3.60;2.40;;;;;;;;;;6239505;23;20202;-87
2021/05/02 06:25:45;;;;;;;4.07;2.50;;;;;;;;;;6243163;22;20165;-91
2021/05/02 06:28:51;;;;;;;3.30;2.23;;;;;;;;;;6243558;22;20206;-88
2021/05/02 06:31:56;;;;;;;2.40;1.83;;;;;;;;;;6241525;23;20162;-88
2021/05/02 06:35:05;;;;;;;2.57;1.90;;;;;;;;;;6242611;23;20169;-90
2021/05/02 06:38:12;;;;;;;3.07;1.93;;;;;;;;;;6243500;23;20183;-90
2021/05/02 06:41:16;;;;;;;3.33;2.03;;;;;;;;;;6242602;22;20167;-89
2021/05/02 06:44:20;;;;;;;2.90;2.07;;;;;;;;;;6240504;23;20652;-89
2021/05/02 06:47:25;;;;;;;2.97;2.20;;;;;;;;;;6241221;23;20218;-89
2021/05/02 06:50:30;;;;;;;3.00;1.97;;;;;;;;;;6241721;23;20171;-91
2021/05/02 06:53:35;;;;;;;2.23;1.57;;;;;;;;;;6239797;23;20175;-88
2021/05/02 06:56:39;;;;;;;4.83;1.50;;;;;;;;;;6240337;22;20215;-89
2021/05/02 06:59:44;;;;;;;1.87;1.40;;;;;;;;;;6242030;23;20227;-91
2021/05/02 07:02:49;;;;;;;2.87;1.70;;;;;;;;;;6246086;23;20167;-90
2021/05/02 07:05:54;;;;;;;3.73;1.50;;;;;;;;;;6241486;23;20222;-92
2021/05/02 07:08:59;;;;;;;1.97;1.37;;;;;;;;;;6240697;23;20194;-88
2021/05/02 07:12:05;;;;;;;1.73;1.20;;;;;;;;;;6226979;23;20239;-88
2021/05/02 07:15:10;;;;;;;1.73;1.30;;;;;;;;;;6229101;22;20227;-89
2021/05/02 07:18:14;;;;;;;2.13;1.20;;;;;;;;;;6228367;22;20270;-89
2021/05/02 07:21:21;;;;;;;1.70;1.30;;;;;;;;;;6229302;23;20285;-92
2021/05/02 07:24:25;;;;;;;1.73;1.27;;;;;;;;;;6228774;23;20664;-90
2021/05/02 07:27:30;;;;;;;2.07;1.20;;;;;;;;;;6227136;23;20239;-92
2021/05/02 07:30:35;;;;;;;2.97;1.20;;;;;;;;;;6227495;23;20167;-90
2021/05/02 07:33:40;;;;;;;1.90;1.40;;;;;;;;;;6228084;23;20215;-90
2021/05/02 07:36:45;;;;;;;2.20;1.40;;;;;;;;;;6227191;23;20187;-91
2021/05/02 07:39:49;;;;;;;1.77;1.30;;;;;;;;;;6227885;23;20546;-91
2021/05/02 07:42:54;;;;;;;1.70;1.10;;;;;;;;;;6225804;23;20194;-91
2021/05/02 07:45:59;;;;;;;2.93;1.20;;;;;;;;;;6224546;23;20155;-90
2021/05/02 07:49:04;;;;;;;1.23;1.10;;;;;;;;;;6223868;23;20277;-89
2021/05/02 07:52:10;;;;;;;1.03;0.83;;;;;;;;;;6223714;23;20271;-90
2021/05/02 07:55:14;;;;;;;1.93;1.13;;;;;;;;;;6221333;23;20186;-90
2021/05/02 07:58:18;;;;;;;1.27;1.17;;;;;;;;;;6219369;23;20243;-89
2021/05/02 08:01:23;;;;;;;3.83;1.30;;;;;;;;;;6222529;23;20634;-87
2021/05/02 08:04:28;;;;;;;1.03;0.90;;;;;;;;;;6224154;22;20183;-88
2021/05/02 08:07:33;;;;;;;1.37;1.20;;;;;;;;;;6225051;23;20257;-88
2021/05/02 08:10:37;;;;;;;2.10;1.00;;;;;;;;;;6233443;23;20189;-88
2021/05/02 08:13:42;;;;;;;1.50;1.20;;;;;;;;;;6237393;23;20175;-88
2021/05/02 08:16:46;;;;;;;3.00;1.40;;;;;;;;;;6234227;23;20212;-87
2021/05/02 08:19:50;;;;;;;3.17;1.30;;;;;;;;;;6234929;23;20542;-87
2021/05/02 08:22:56;;;;;;;1.93;1.30;;;;;;;;;;6252908;23;20621;-89
2021/05/02 08:26:00;;;;;;;2.30;1.37;;;;;;;;;;6238238;23;20190;-88
2021/05/02 08:29:04;;;;;;;1.20;1.10;;;;;;;;;;6235922;23;20657;-88
2021/05/02 08:32:09;;;;;;;2.60;1.50;;;;;;;;;;6233145;23;20170;-87
2021/05/02 08:35:13;;;;;;;1.73;1.37;;;;;;;;;;6233738;23;20221;-89
2021/05/02 08:38:19;;;;;;;1.83;1.30;;;;;;;;;;6234128;23;20641;-88
2021/05/02 08:41:23;;;;;;;2.00;1.40;;;;;;;;;;6234180;23;20193;-88
2021/05/02 08:44:30;;;;;;;3.13;1.70;;;;;;;;;;6234929;23;20593;-88
2021/05/02 08:47:36;;;;;;;2.03;1.50;;;;;;;;;;6234260;23;20229;-89
2021/05/02 08:50:40;;;;;;;2.60;1.90;;;;;;;;;;6234716;23;20198;-88
2021/05/02 08:53:45;;;;;;;2.50;1.77;;;;;;;;;;6234267;23;20165;-90
2021/05/02 08:56:54;;;;;;;1.77;1.37;;;;;;;;;;6236278;23;20166;-89
2021/05/02 08:59:59;;;;;;;2.17;1.70;;;;;;;;;;6238140;23;20183;-91
2021/05/02 09:03:06;;;;;;;2.50;1.47;;;;;;;;;;6238859;23;20194;-89
2021/05/02 09:06:19;;;;;;;1.77;1.60;;;;;;;;;;6237249;23;20163;-89
2021/05/02 09:09:25;;;;;;;2.53;1.60;;;;;;;;;;6238534;23;20167;-89
2021/05/02 09:12:30;;;;;;;2.77;1.63;;;;;;;;;;6237497;23;20542;-91
2021/05/02 09:15:34;;;;;;;2.30;1.60;;;;;;;;;;6239236;23;20568;-90
2021/05/02 09:18:40;;;;;;;3.27;2.00;;;;;;;;;;6237512;23;20170;-89
2021/05/02 09:21:45;;;;;;;3.37;2.00;;;;;;;;;;6238259;23;20166;-89
2021/05/02 09:25:00;;;;;;;4.10;1.97;;;;;;;;;;6238756;23;20183;-89
2021/05/02 09:28:05;;;;;;;3.37;1.83;;;;;;;;;;6236699;22;20707;-91
2021/05/02 09:31:10;;;;;;;3.67;2.10;;;;;;;;;;6238628;23;20210;-90
2021/05/02 09:34:16;;;;;;;3.07;1.57;;;;;;;;;;6237435;23;20162;-90
2021/05/02 09:37:21;;;;;;;2.23;1.73;;;;;;;;;;6235609;23;20238;-89
2021/05/02 09:40:27;;;;;;;2.57;1.97;;;;;;;;;;6237513;23;20154;-88
2021/05/02 09:43:49;;;;;;;2.97;1.80;;;;;;;;;;6235670;22;20186;-89
2021/05/02 09:46:54;;;;;;;2.30;1.70;;;;;;;;;;6237586;23;20491;-91
2021/05/02 09:50:05;;;;;;;3.20;1.98;;;;;;;;;;6236453;23;20190;-90
2021/05/02 09:53:10;;;;;;;4.30;2.15;;;;;;;;;;6236215;23;20194;-88
2021/05/02 09:56:15;;;;;;;3.03;2.13;;;;;;;;;;6240664;22;20222;-92
2021/05/02 09:59:21;;;;;;;3.15;2.08;;;;;;;;;;6239921;23;20402;-91
2021/05/02 10:02:30;;;;;;;3.30;2.25;;;;;;;;;;6241462;23;20238;-90
2021/05/02 10:05:36;;;;;;;4.30;2.60;;;;;;;;;;6237746;23;20170;-89
2021/05/02 10:08:41;;;;;;;4.15;2.08;;;;;;;;;;6238385;23;20700;-87
2021/05/02 10:11:48;;;;;;;3.85;2.58;;;;;;;;;;6227037;22;20191;-88
2021/05/02 10:14:53;;;;;;;3.45;2.50;;;;;;;;;;6224764;23;20554;-89
2021/05/02 10:17:58;;;;;;;3.45;2.42;;;;;;;;;;6225959;23;20171;-90
2021/05/02 10:21:04;;;;;;;3.40;2.40;;;;;;;;;;6226702;23;20167;-89
2021/05/02 10:24:09;;;;;;;3.92;2.67;;;;;;;;;;6225780;23;20171;-88
2021/05/02 10:27:15;;;;;;;4.60;2.67;;;;;;;;;;6225978;23;20159;-89
2021/05/02 10:30:23;;;;;;;7.35;3.10;;;;;;;;;;6225597;22;20201;-87
2021/05/02 10:33:33;;;;;;;8.60;3.37;;;;;;;;;;6224025;23;20176;-88
2021/05/02 10:36:37;;;;;;;4.53;3.10;;;;;;;;;;6226510;23;20170;-86
2021/05/02 10:39:53;;;;;;;4.13;3.13;;;;;;;;;;6224602;23;20167;-87
2021/05/02 10:43:01;;;;;;;5.20;3.40;;;;;;;;;;6224965;23;20546;-89
2021/05/02 10:46:06;;;;;;;4.97;3.43;;;;;;;;;;6226402;22;20171;-89
2021/05/02 10:49:11;;;;;;;6.10;3.57;;;;;;;;;;6226439;22;20704;-89
2021/05/02 10:52:28;;;;;;;5.20;3.43;;;;;;;;;;6225224;23;20167;-90
2021/05/02 10:55:47;;;;;;;6.10;3.80;;;;;;;;;;6225872;22;20191;-89
2021/05/02 10:58:58;;;;;;;10.33;4.27;;;;;;;;;;6224361;23;20224;-89
2021/05/02 11:02:23;;;;;;;6.93;4.10;;;;;;;;;;6223046;22;20167;-89
2021/05/02 11:05:47;;;;;;;6.77;4.00;;;;;;;;;;6222610;23;20211;-87
2021/05/02 11:08:52;;;;;;;7.37;3.70;;;;;;;;;;6223457;22;20215;-87
2021/05/02 11:11:57;;;;;;;6.37;4.27;;;;;;;;;;6223561;22;20217;-88
2021/05/02 11:15:23;;;;;;;6.93;3.60;;;;;;;;;;6222335;23;20218;-90
2021/05/02 11:18:48;;;;;;;6.37;3.63;;;;;;;;;;6228213;22;20183;-87
2021/05/02 11:22:07;;;;;;;9.40;4.23;;;;;;;;;;6227950;22;20152;-89
2021/05/02 11:25:17;;;;;;;4.60;3.43;;;;;;;;;;6226869;22;20191;-88
2021/05/02 11:28:41;;;;;;;6.23;4.03;;;;;;;;;;6224221;22;20526;-90
2021/05/02 11:31:47;;;;;;;7.27;4.50;;;;;;;;;;6223199;23;20222;-90
2021/05/02 11:34:53;;;;;;;7.90;4.70;;;;;;;;;;6224441;23;20179;-88
2021/05/02 11:38:00;;;;;;;6.70;4.13;;;;;;;;;;6225110;23;20195;-89
2021/05/02 11:41:08;;;;;;;7.03;4.10;;;;;;;;;;6226122;23;20195;-90
2021/05/02 11:44:13;;;;;;;6.97;4.83;;;;;;;;;;6221640;23;20175;-89
2021/05/02 11:47:19;;;;;;;7.17;4.37;;;;;;;;;;6223102;23;20171;-89
2021/05/02 11:50:24;;;;;;;7.53;4.80;;;;;;;;;;6223788;22;20191;-89
2021/05/02 11:53:35;;;;;;;6.47;4.00;;;;;;;;;;6226208;23;20174;-89
2021/05/02 11:56:41;;;;;;;8.57;4.30;;;;;;;;;;6226524;23;20222;-90
2021/05/02 11:59:49;;;;;;;7.97;4.57;;;;;;;;;;6226360;23;20199;-90
2021/05/02 12:02:55;;;;;;;9.37;5.33;;;;;;;;;;6229433;23;20174;-91
2021/05/02 12:05:59;;;;;;;8.57;4.70;;;;;;;;;;6228375;23;20199;-91
2021/05/02 12:09:11;;;;;;;9.23;5.97;;;;;;;;;;6226815;23;20194;-90
2021/05/02 12:12:17;;;;;;;11.20;6.23;;;;;;;;;;6226558;23;20214;-89
2021/05/02 12:15:22;;;;;;;10.20;6.30;;;;;;;;;;6227645;23;20510;-90
2021/05/02 12:18:42;;;;;;;9.90;5.93;;;;;;;;;;6226560;23;20218;-90
2021/05/02 12:21:47;;;;;;;10.90;6.63;;;;;;;;;;6226108;22;20191;-89
2021/05/02 12:24:52;;;;;;;11.90;7.57;;;;;;;;;;6227838;23;20174;-89
2021/05/02 12:28:00;;;;;;;13.73;7.97;;;;;;;;;;6225913;23;20191;-90
2021/05/02 12:31:05;;;;;;;12.57;7.93;;;;;;;;;;6226885;23;20242;-89
2021/05/02 12:34:13;;;;;;;14.47;8.83;;;;;;;;;;6226022;23;20175;-88
2021/05/02 12:37:17;;;;;;;14.37;8.50;;;;;;;;;;6225903;23;20198;-88
2021/05/02 12:40:22;;;;;;;12.90;8.70;;;;;;;;;;6226201;23;20550;-90
2021/05/02 12:43:27;;;;;;;14.23;8.67;;;;;;;;;;6224408;23;20182;-89
2021/05/02 12:46:39;;;;;;;12.97;8.00;;;;;;;;;;6225756;23;20187;-87
2021/05/02 12:49:51;;;;;;;11.20;7.27;;;;;;;;;;6226326;23;20168;-90
2021/05/02 12:52:56;;;;;;;12.90;8.13;;;;;;;;;;6226402;23;20155;-90
2021/05/02 12:56:01;;;;;;;13.83;8.60;;;;;;;;;;6227427;23;20270;-90
2021/05/02 12:59:20;;;;;;;12.37;7.87;;;;;;;;;;6227166;23;20230;-89
2021/05/02 13:02:28;;;;;;;12.53;7.83;;;;;;;;;;6228242;23;20199;-89
2021/05/02 13:05:33;;;;;;;13.70;8.33;;;;;;;;;;6226367;23;20178;-89
2021/05/02 13:08:40;;;;;;;10.57;7.13;;;;;;;;;;6228284;23;20199;-89
2021/05/02 13:11:45;;;;;;;11.47;6.97;;;;;;;;;;6232382;22;20625;-89
2021/05/02 13:15:02;;;;;;;12.50;7.23;;;;;;;;;;6230112;23;20176;-90
2021/05/02 13:18:09;;;;;;;9.97;5.53;;;;;;;;;;6228776;23;20615;-90
2021/05/02 13:21:24;;;;;;;10.10;7.30;;;;;;;;;;6230472;23;20186;-90
2021/05/02 13:24:29;;;;;;;11.13;7.37;;;;;;;;;;6230107;22;20171;-91
2021/05/02 13:27:34;;;;;;;11.53;7.93;;;;;;;;;;6228673;23;20167;-88
2021/05/02 13:30:39;;;;;;;11.63;7.40;;;;;;;;;;6229357;23;20167;-91
2021/05/02 13:33:43;;;;;;;13.33;7.50;;;;;;;;;;6229671;23;20239;-89
2021/05/02 13:36:54;;;;;;;10.60;7.23;;;;;;;;;;6231826;23;20159;-91
2021/05/02 13:39:58;;;;;;;9.97;6.60;;;;;;;;;;6230469;23;20152;-89
2021/05/02 13:43:07;;;;;;;10.57;7.57;;;;;;;;;;6233119;23;20175;-90
2021/05/02 13:46:12;;;;;;;10.77;7.00;;;;;;;;;;6233626;23;20191;-90
2021/05/02 13:49:17;;;;;;;13.13;8.10;;;;;;;;;;6229754;23;20190;-90
2021/05/02 13:52:23;;;;;;;13.93;8.63;;;;;;;;;;6231060;23;20167;-90
2021/05/02 13:55:27;;;;;;;11.87;7.67;;;;;;;;;;6231422;22;20172;-90
2021/05/02 13:58:32;;;;;;;13.97;8.40;;;;;;;;;;6231202;23;20243;-90
2021/05/02 14:01:37;;;;;;;12.77;8.10;;;;;;;;;;6229571;23;20489;-91
2021/05/02 14:04:42;;;;;;;12.33;7.97;;;;;;;;;;6230281;23;20195;-88
2021/05/02 14:07:48;;;;;;;14.63;8.47;;;;;;;;;;6229000;23;20195;-91
2021/05/02 14:10:52;;;;;;;13.30;8.57;;;;;;;;;;6227509;23;20247;-89
2021/05/02 14:13:57;;;;;;;12.43;8.50;;;;;;;;;;6227114;23;20535;-92
2021/05/02 14:17:01;;;;;;;14.27;8.90;;;;;;;;;;6228140;23;20171;-90
2021/05/02 14:20:07;;;;;;;14.63;9.40;;;;;;;;;;6228144;22;20152;-91
2021/05/02 14:23:12;;;;;;;14.77;9.43;;;;;;;;;;6228363;23;20199;-90
2021/05/02 14:26:17;;;;;;;20.63;10.40;;;;;;;;;;6227181;23;20171;-89
2021/05/02 14:29:21;;;;;;;14.90;9.37;;;;;;;;;;6227542;23;20207;-91
2021/05/02 14:32:26;;;;;;;12.77;8.30;;;;;;;;;;6228179;23;20175;-90
2021/05/02 14:35:31;;;;;;;16.33;9.60;;;;;;;;;;6229376;23;20175;-89
2021/05/02 14:38:37;;;;;;;14.83;9.27;;;;;;;;;;6226355;23;20214;-90
2021/05/02 14:41:41;;;;;;;15.77;8.88;;;;;;;;;;6226727;23;20291;-92
2021/05/02 14:44:46;;;;;;;15.30;9.50;;;;;;;;;;6226014;23;20215;-91
2021/05/02 14:47:51;;;;;;;12.93;8.57;;;;;;;;;;6227305;23;20191;-90
2021/05/02 14:50:56;;;;;;;11.17;7.20;;;;;;;;;;6225480;23;20167;-90
2021/05/02 14:54:02;;;;;;;12.23;7.33;;;;;;;;;;6227281;23;20211;-88
2021/05/02 14:57:06;;;;;;;11.13;7.43;;;;;;;;;;6226214;22;20243;-89
2021/05/02 15:00:12;;;;;;;11.20;7.50;;;;;;;;;;6226948;23;20591;-89
2021/05/02 15:03:18;;;;;;;11.40;7.40;;;;;;;;;;6227313;23;20560;-90
2021/05/02 15:06:23;;;;;;;10.57;7.37;;;;;;;;;;6226479;23;20210;-89
2021/05/02 15:09:28;;;;;;;10.13;6.83;;;;;;;;;;6225387;23;20262;-90
2021/05/02 15:12:34;;;;;;;13.53;7.97;;;;;;;;;;6227463;23;20622;-89
2021/05/02 15:15:38;;;;;;;11.40;7.55;;;;;;;;;;6226583;23;20232;-89
2021/05/02 15:18:43;;;;;;;11.02;7.40;;;;;;;;;;6228278;23;20167;-89
2021/05/02 15:21:47;;;;;;;14.57;8.18;;;;;;;;;;6226089;23;20215;-88
2021/05/02 15:24:53;;;;;;;17.50;7.68;;;;;;;;;;6227974;23;20175;-89
2021/05/02 15:27:58;;;;;;;11.68;7.80;;;;;;;;;;6229169;23;20191;-89
2021/05/02 15:31:03;;;;;;;14.27;7.30;;;;;;;;;;6227239;23;20175;-90
2021/05/02 15:34:10;;;;;;;11.68;7.97;;;;;;;;;;6227144;23;20168;-89
2021/05/02 15:37:15;;;;;;;13.43;8.27;;;;;;;;;;6226210;23;20187;-89
2021/05/02 15:40:20;;;;;;;16.75;8.13;;;;;;;;;;6228124;23;20170;-89
2021/05/02 15:43:25;;;;;;;11.95;8.30;;;;;;;;;;6226922;23;20316;-89
2021/05/02 15:46:30;;;;;;;14.40;8.93;;;;;;;;;;6226609;22;20210;-90
2021/05/02 15:49:35;;;;;;;15.02;8.82;;;;;;;;;;6225818;23;20190;-88
2021/05/02 15:52:39;;;;;;;15.05;8.75;;;;;;;;;;6225451;23;20170;-89
2021/05/02 15:55:44;;;;;;;12.40;8.10;;;;;;;;;;6225846;23;20183;-89
2021/05/02 15:58:49;;;;;;;13.20;8.65;;;;;;;;;;6227496;23;20633;-90
2021/05/02 16:01:53;;;;;;;14.40;9.82;;;;;;;;;;6228430;23;20512;-90
2021/05/02 16:04:58;;;;;;;14.40;8.52;;;;;;;;;;6226886;23;20170;-91
2021/05/02 16:08:03;;;;;;;16.10;8.70;;;;;;;;;;6226750;23;20243;-90
2021/05/02 16:11:12;;;;;;;15.48;8.68;;;;;;;;;;6225559;23;20781;-89
2021/05/02 16:14:17;;;;;;;13.23;9.23;;;;;;;;;;6227602;23;20175;-89
2021/05/02 16:17:22;;;;;;;13.82;8.82;;;;;;;;;;6227320;22;20171;-90
2021/05/02 16:20:27;;;;;;;15.38;9.60;;;;;;;;;;6227291;23;20221;-90
2021/05/02 16:23:36;;;;;;;15.57;9.70;;;;;;;;;;6228571;23;20166;-91
2021/05/02 16:26:41;;;;;;;16.83;9.25;;;;;;;;;;6227831;23;20172;-90
2021/05/02 16:29:46;;;;;;;17.08;10.00;;;;;;;;;;6226138;23;20262;-90
2021/05/02 16:32:52;;;;;;;17.63;9.40;;;;;;;;;;6226175;23;20170;-90
2021/05/02 16:35:58;;;;;;;14.27;9.45;;;;;;;;;;6226638;23;20171;-90
2021/05/02 16:39:03;;;;;;;15.35;9.35;;;;;;;;;;6226860;23;20507;-90
2021/05/02 16:42:09;;;;;;;13.35;8.63;;;;;;;;;;6226927;22;20211;-90
2021/05/02 16:45:13;;;;;;;18.13;10.47;;;;;;;;;;6225812;23;20513;-90
2021/05/02 16:48:18;;;;;;;18.10;9.93;;;;;;;;;;6227722;23;20195;-90
2021/05/02 16:51:23;;;;;;;15.30;9.63;;;;;;;;;;6228330;23;20171;-90
2021/05/02 16:54:28;;;;;;;15.45;9.60;;;;;;;;;;6228435;23;20171;-91
2021/05/02 16:57:33;;;;;;;17.20;9.60;;;;;;;;;;6228636;23;20179;-90
2021/05/02 17:00:38;;;;;;;15.80;9.55;;;;;;;;;;6230618;23;20218;-91
2021/05/02 17:03:43;;;;;;;16.67;9.95;;;;;;;;;;6227307;23;20175;-89
2021/05/02 17:06:56;;;;;;;16.35;9.90;;;;;;;;;;6227629;23;20166;-91
2021/05/02 17:10:00;;;;;;;20.65;10.50;;;;;;;;;;6229716;23;20199;-90
2021/05/02 17:13:06;;;;;;;17.92;10.13;;;;;;;;;;6240457;23;20652;-91
2021/05/02 17:16:11;;;;;;;20.73;12.10;;;;;;;;;;6242319;23;20167;-90
2021/05/02 17:19:16;;;;;;;15.75;9.65;;;;;;;;;;6240398;23;20190;-90
2021/05/02 17:22:20;;;;;;;19.00;10.85;;;;;;;;;;6239936;23;20681;-89
2021/05/02 17:25:27;;;;;;;16.75;11.35;;;;;;;;;;6241833;23;20170;-88
2021/05/02 17:28:33;;;;;;;17.13;10.30;;;;;;;;;;6239360;23;20194;-89
2021/05/02 17:31:38;;;;;;;74.37;33.70;;;;;;;;;;6242477;23;20223;-91
2021/05/02 17:34:42;;;;;;;34.57;18.33;;;;;;;;;;6240547;23;20174;-91
2021/05/02 17:37:47;;;;;;;17.33;10.77;;;;;;;;;;6240419;23;20194;-91
2021/05/02 17:40:52;;;;;;;20.17;11.63;;;;;;;;;;6241729;23;20698;-90
2021/05/02 17:43:58;;;;;;;21.27;11.07;;;;;;;;;;6240664;23;20155;-92
2021/05/02 17:47:03;;;;;;;19.37;11.57;;;;;;;;;;6240798;22;20222;-92
2021/05/02 17:50:09;;;;;;;19.20;11.47;;;;;;;;;;6241836;22;20289;-92
2021/05/02 17:53:18;;;;;;;20.40;12.10;;;;;;;;;;6241800;23;20167;-93
2021/05/02 17:56:24;;;;;;;22.07;12.83;;;;;;;;;;6242695;23;20175;-90
2021/05/02 17:59:29;;;;;;;22.03;13.73;;;;;;;;;;6242234;23;20185;-91
2021/05/02 18:02:34;;;;;;;20.60;12.77;;;;;;;;;;6244805;23;20174;-89
2021/05/02 18:05:40;;;;;;;18.87;11.97;;;;;;;;;;6244329;23;20166;-91
2021/05/02 18:08:45;;;;;;;28.93;15.53;;;;;;;;;;6242777;23;20173;-90
2021/05/02 18:11:49;;;;;;;18.30;11.77;;;;;;;;;;6229493;23;20226;-90
2021/05/02 18:14:55;;;;;;;21.23;13.90;;;;;;;;;;6230206;22;20191;-90
2021/05/02 18:18:00;;;;;;;26.10;13.60;;;;;;;;;;6228805;22;20247;-90
2021/05/02 18:21:06;;;;;;;23.93;13.57;;;;;;;;;;6228055;23;20291;-90
2021/05/02 18:24:13;;;;;;;34.03;18.83;;;;;;;;;;6228475;23;20174;-91
2021/05/02 18:27:19;;;;;;;22.63;13.73;;;;;;;;;;6228141;23;20179;-92